Time;durP1;ratioP1;P1;durP2;ratioP2;P2;SDS_P1;SDS_P2;PMS_P1;PMS_P2;Temp;Humidity;BMP_temperature;BMP_pressure;BME280_temperature;BME280_humidity;BME280_pressure;Samples;Min_cycle;Max_cycle;Signal;HPM_P1;HPM_P2
2022/02/06 00:03:07;;;;;;;5.93;1.98;;;;;;;5.48;55.26;100064.13;10467490;28;20050;-66
2022/02/06 00:08:11;;;;;;;9.85;2.40;;;;;;;5.41;56.04;100050.53;10470703;28;20094;-66
2022/02/06 00:13:13;;;;;;;11.30;2.53;;;;;;;5.36;55.90;100039.50;10467413;28;20094;-66
2022/02/06 00:18:15;;;;;;;9.10;2.53;;;;;;;5.49;55.73;100019.13;10467363;28;20183;-66
2022/02/06 00:23:19;;;;;;;10.57;2.13;;;;;;;5.48;55.77;100010.50;10467775;28;20059;-66
2022/02/06 00:44:10;;;;;;;12.23;2.95;;;;;;;5.57;56.12;99971.22;10391248;28;20185;-66
2022/02/06 00:49:23;;;;;;;8.63;3.22;;;;;;;5.66;56.22;99959.66;10466673;28;20754;-66
2022/02/06 00:54:25;;;;;;;14.38;5.60;;;;;;;5.67;56.25;99953.56;10466752;28;20453;-66
2022/02/06 00:59:27;;;;;;;9.70;2.55;;;;;;;5.61;56.49;99935.66;10467020;28;20598;-66
2022/02/06 01:04:34;;;;;;;9.27;2.58;;;;;;;5.51;56.66;99937.72;10466411;28;20222;-66
2022/02/06 01:09:37;;;;;;;9.20;2.83;;;;;;;5.49;56.64;99917.97;10466204;28;20504;-66
2022/02/06 01:15:05;;;;;;;10.77;2.50;;;;;;;5.60;56.61;99918.38;10466424;28;20048;-66
2022/02/06 01:20:14;;;;;;;6.85;2.22;;;;;;;5.51;56.92;99913.56;10466302;28;20043;-66
2022/02/06 01:25:23;;;;;;;8.63;2.30;;;;;;;5.65;56.74;99915.59;10467665;28;20058;-65
2022/02/06 01:35:37;;;;;;;7.43;2.20;;;;;;;5.57;57.28;99906.38;10467488;28;20139;-66
2022/02/06 01:40:57;;;;;;;9.52;2.75;;;;;;;5.48;57.43;99886.00;10471929;28;20052;-66
2022/02/06 01:46:16;;;;;;;7.00;2.00;;;;;;;5.59;57.14;99884.72;10472367;28;20048;-66
2022/02/06 02:02:28;;;;;;;10.48;1.75;;;;;;;5.51;57.55;99853.91;10470676;28;20139;-67
2022/02/06 02:08:19;;;;;;;6.13;2.22;;;;;;;5.61;57.61;99810.28;10469416;28;20316;-66
2022/02/06 02:49:55;;;;;;;9.93;2.50;;;;;;;5.80;57.51;99761.91;10469036;28;20511;-66
2022/02/06 02:55:14;;;;;;;7.97;2.10;;;;;;;5.68;57.73;99767.59;10458277;28;20053;-66
2022/02/06 03:00:34;;;;;;;7.75;2.00;;;;;;;5.79;57.53;99761.06;10469106;28;20159;-66
2022/02/06 03:05:37;;;;;;;9.90;2.10;;;;;;;5.80;57.67;99747.16;10475342;28;20044;-66
2022/02/06 03:10:39;;;;;;;11.00;2.30;;;;;;;5.76;57.50;99753.38;10475291;28;20045;-66
2022/02/06 03:15:59;;;;;;;8.07;2.30;;;;;;;5.68;57.86;99731.25;10476625;28;20056;-66
2022/02/06 03:21:02;;;;;;;8.57;2.15;;;;;;;5.79;57.52;99722.13;10476507;28;20123;-66
2022/02/06 03:26:04;;;;;;;7.15;2.00;;;;;;;5.82;57.56;99716.78;10475701;28;20093;-66
2022/02/06 03:31:06;;;;;;;10.10;2.13;;;;;;;5.78;57.68;99702.25;10475683;28;20053;-66
2022/02/06 03:36:09;;;;;;;8.65;2.15;;;;;;;5.62;57.65;99690.88;10474763;28;20496;-66
2022/02/06 03:41:12;;;;;;;7.75;2.20;;;;;;;5.79;57.39;99693.59;10473506;28;20135;-66
2022/02/06 03:46:22;;;;;;;5.85;1.90;;;;;;;5.68;57.88;99689.75;10470578;28;20051;-66
2022/02/06 03:51:35;;;;;;;7.18;2.22;;;;;;;5.72;57.56;99670.53;10473438;28;20044;-66
2022/02/06 03:56:39;;;;;;;7.65;2.50;;;;;;;5.93;57.35;99667.00;10475229;28;20061;-66
2022/02/06 04:01:40;;;;;;;7.63;2.30;;;;;;;6.03;56.97;99657.88;10474325;28;20065;-66
2022/02/06 04:06:42;;;;;;;6.75;2.17;;;;;;;5.83;57.58;99666.59;10468748;28;20523;-66
2022/02/06 04:11:48;;;;;;;11.77;2.45;;;;;;;5.95;57.23;99641.81;10467185;28;20045;-66
2022/02/06 04:16:55;;;;;;;5.63;1.85;;;;;;;6.02;57.12;99623.28;10467671;28;20090;-66
2022/02/06 04:21:58;;;;;;;9.23;1.85;;;;;;;6.03;56.99;99605.97;10467343;28;20139;-66
2022/02/06 04:27:00;;;;;;;10.25;2.05;;;;;;;5.86;57.43;99590.34;10467052;28;20515;-66
2022/02/06 04:32:03;;;;;;;11.73;2.70;;;;;;;6.00;57.25;99598.34;10466507;28;20443;-66
2022/02/06 04:37:29;;;;;;;9.80;2.42;;;;;;;6.00;57.32;99583.59;10449117;28;20058;-66
2022/02/06 05:30:09;;;;;;;6.07;2.25;;;;;;;6.01;58.60;99528.19;10474938;28;20067;-66
2022/02/06 05:35:11;;;;;;;6.45;2.05;;;;;;;6.05;58.76;99523.69;10475006;28;20192;-66
2022/02/06 05:40:13;;;;;;;7.57;2.03;;;;;;;6.07;58.72;99507.13;10474385;28;20152;-66
2022/02/06 05:45:18;;;;;;;8.02;2.10;;;;;;;6.10;58.71;99512.16;10474401;28;20050;-66
2022/02/06 05:50:22;;;;;;;7.85;2.00;;;;;;;6.02;59.06;99516.88;10474496;28;20040;-66
2022/02/06 05:55:24;;;;;;;5.90;2.05;;;;;;;6.17;58.69;99510.94;10474002;28;20045;-66
2022/02/06 06:00:26;;;;;;;6.53;2.03;;;;;;;6.17;58.56;99497.97;10473932;28;20078;-66
2022/02/06 06:05:28;;;;;;;7.30;1.95;;;;;;;6.20;58.54;99491.78;10474138;28;20048;-66
2022/02/06 06:10:30;;;;;;;10.40;2.10;;;;;;;6.08;58.97;99482.81;10471485;28;20048;-67
2022/02/06 06:15:31;;;;;;;9.30;2.00;;;;;;;6.16;58.74;99482.47;10471671;28;20606;-67
2022/02/06 06:20:35;;;;;;;4.00;1.80;;;;;;;6.15;58.87;99457.41;10473089;28;20054;-67
2022/02/06 06:25:39;;;;;;;6.85;1.73;;;;;;;6.13;58.89;99451.47;10473048;28;20446;-67
2022/02/06 06:30:41;;;;;;;8.30;1.60;;;;;;;6.02;59.32;99426.03;10479450;28;20160;-67
2022/02/06 06:35:45;;;;;;;6.13;1.40;;;;;;;6.03;59.72;99406.94;10472154;28;20053;-67
2022/02/06 06:40:47;;;;;;;4.30;1.40;;;;;;;6.12;59.79;99403.06;10470230;28;20040;-66
2022/02/06 06:45:48;;;;;;;6.80;1.83;;;;;;;6.23;59.46;99392.97;10472106;28;20157;-66
2022/02/06 06:50:50;;;;;;;6.13;1.92;;;;;;;6.08;60.02;99388.56;10472333;28;20059;-66
2022/02/06 06:55:58;;;;;;;6.93;1.60;;;;;;;6.03;60.07;99395.72;10472412;28;20045;-67
2022/02/06 07:06:05;;;;;;;7.55;1.63;;;;;;;5.98;60.28;99388.16;10471580;28;20518;-67
2022/02/06 07:11:07;;;;;;;5.80;1.88;;;;;;;6.18;59.88;99380.22;10471127;28;20054;-67
2022/02/06 07:16:10;;;;;;;6.72;1.50;;;;;;;6.13;60.03;99360.59;10470522;28;20503;-67
2022/02/06 07:21:12;;;;;;;4.53;1.60;;;;;;;6.20;59.87;99359.38;10469643;28;20044;-66
2022/02/06 07:26:18;;;;;;;4.15;1.60;;;;;;;6.18;59.82;99367.25;10469817;28;20057;-67
2022/02/06 07:31:20;;;;;;;5.30;1.58;;;;;;;6.04;60.15;99359.28;10470023;28;20496;-67
2022/02/06 07:36:22;;;;;;;4.18;1.70;;;;;;;6.10;60.12;99364.16;10485242;28;20371;-67
2022/02/06 07:41:24;;;;;;;5.90;1.85;;;;;;;6.26;59.62;99356.50;10470002;28;20458;-67
2022/02/06 07:46:31;;;;;;;14.80;8.07;;;;;;;6.27;59.61;99347.78;10469801;28;20044;-66
2022/02/06 07:51:35;;;;;;;4.45;1.70;;;;;;;6.38;59.33;99326.44;10467267;28;20058;-66
2022/02/06 07:56:36;;;;;;;5.22;1.70;;;;;;;6.38;59.25;99336.84;10469004;28;20238;-67
2022/02/06 08:01:38;;;;;;;6.97;1.80;;;;;;;6.29;59.59;99323.41;10469599;28;20048;-66
2022/02/06 08:06:40;;;;;;;7.35;1.80;;;;;;;6.47;59.01;99318.19;10467335;28;20068;-66
2022/02/06 08:11:46;;;;;;;5.70;1.73;;;;;;;6.36;59.35;99305.75;10468407;28;20052;-66
2022/02/06 08:16:48;;;;;;;3.83;1.60;;;;;;;6.46;59.19;99300.91;10468855;28;20691;-67
2022/02/06 08:21:50;;;;;;;6.13;1.60;;;;;;;6.39;59.16;99289.19;10466563;28;20068;-66
2022/02/06 08:26:51;;;;;;;5.13;1.50;;;;;;;6.30;59.66;99274.91;10471796;28;20051;-67
2022/02/06 08:31:53;;;;;;;4.13;1.48;;;;;;;6.52;59.35;99259.88;10466372;28;20230;-67
2022/02/06 08:36:55;;;;;;;3.58;1.50;;;;;;;6.53;59.23;99258.94;10468820;28;20421;-67
2022/02/06 08:41:57;;;;;;;2.80;1.23;;;;;;;6.30;59.91;99234.22;10469852;28;20117;-66
2022/02/06 08:47:00;;;;;;;5.70;1.20;;;;;;;6.25;60.07;99235.38;10468856;28;20060;-67
2022/02/06 08:52:03;;;;;;;2.92;1.38;;;;;;;6.55;59.54;99225.91;10468116;28;20149;-67
2022/02/06 08:57:22;;;;;;;3.42;1.30;;;;;;;6.48;59.51;99201.22;10466378;28;20044;-66
2022/02/06 09:02:24;;;;;;;3.97;1.30;;;;;;;6.53;59.46;99201.78;10467886;28;20040;-66
2022/02/06 09:07:26;;;;;;;2.20;1.10;;;;;;;6.51;59.60;99189.81;10468404;28;20059;-66
2022/02/06 09:12:30;;;;;;;4.78;1.20;;;;;;;6.56;59.54;99175.66;10466705;28;20562;-66
2022/02/06 09:17:32;;;;;;;1.58;0.95;;;;;;;6.54;59.44;99174.91;10467174;28;20070;-67
2022/02/06 09:22:35;;;;;;;2.53;1.10;;;;;;;6.64;59.35;99165.66;10467590;28;20052;-67
2022/02/06 09:27:38;;;;;;;2.22;1.00;;;;;;;6.72;59.11;99144.44;10467555;28;20049;-67
2022/02/06 09:37:43;;;;;;;4.43;1.10;;;;;;;6.51;59.87;99133.50;10466388;28;20048;-66
2022/02/06 09:42:50;;;;;;;1.40;0.90;;;;;;;6.60;59.69;99132.16;10467548;28;20354;-66
2022/02/06 09:47:53;;;;;;;2.25;1.00;;;;;;;6.68;59.45;99117.81;10470563;28;20143;-67
2022/02/06 09:52:55;;;;;;;2.13;1.00;;;;;;;6.71;59.39;99114.22;10473946;28;20052;-66
2022/02/06 09:58:12;;;;;;;1.40;0.73;;;;;;;6.68;59.66;99112.59;10474264;28;20052;-66
2022/02/06 10:03:14;;;;;;;1.73;0.90;;;;;;;6.61;59.80;99108.69;10473267;28;20056;-65
2022/02/06 10:08:28;;;;;;;2.72;0.93;;;;;;;6.80;59.50;99092.88;10474224;28;20048;-64
2022/02/06 10:13:34;;;;;;;0.77;0.75;;;;;;;6.75;59.55;99068.94;10472544;28;20040;-66
2022/02/06 10:18:38;;;;;;;2.40;0.98;;;;;;;6.70;59.68;99063.16;10476885;28;20044;-66
2022/02/06 10:23:50;;;;;;;0.98;0.75;;;;;;;6.75;59.65;99051.59;10472681;28;20408;-66
2022/02/06 10:29:21;;;;;;;2.13;0.93;;;;;;;6.72;59.72;99050.91;10473004;28;20496;-66
2022/02/06 10:34:33;;;;;;;3.22;1.10;;;;;;;6.77;60.12;99033.28;10472550;28;20048;-67
2022/02/06 10:39:38;;;;;;;2.42;1.40;;;;;;;6.66;60.86;99017.47;10472867;28;20052;-66
2022/02/06 10:44:39;;;;;;;3.97;1.00;;;;;;;6.83;60.81;99013.00;10472131;28;20122;-66
2022/02/06 10:49:42;;;;;;;1.92;0.80;;;;;;;6.75;61.31;98990.97;10472640;28;20416;-66
2022/02/06 10:54:45;;;;;;;1.70;0.60;;;;;;;6.43;62.56;98979.84;10471773;28;20194;-66
2022/02/06 10:59:52;;;;;;;1.42;0.80;;;;;;;6.58;62.44;98944.34;10470865;28;20465;-67
2022/02/06 11:05:09;;;;;;;1.25;0.80;;;;;;;6.33;63.59;98932.81;10471587;28;20052;-66
2022/02/06 11:10:14;;;;;;;0.93;0.73;;;;;;;6.25;63.84;98931.59;10470697;28;20523;-66
2022/02/06 11:15:28;;;;;;;1.20;0.77;;;;;;;6.39;63.48;98907.44;10471550;28;20049;-66
2022/02/06 11:20:31;;;;;;;1.73;1.00;;;;;;;6.27;63.43;98902.00;10469649;28;20056;-66
2022/02/06 11:25:35;;;;;;;1.33;0.80;;;;;;;6.47;62.71;98877.47;10470307;28;20048;-67
2022/02/06 11:30:39;;;;;;;1.35;0.70;;;;;;;6.61;62.46;98869.69;10470194;28;20062;-67
2022/02/06 11:35:45;;;;;;;1.77;1.13;;;;;;;6.64;62.42;98848.72;10470494;28;20132;-67
2022/02/06 11:46:22;;;;;;;1.52;0.90;;;;;;;6.61;62.23;98822.94;10469736;28;20055;-67
2022/02/06 11:51:24;;;;;;;1.08;0.90;;;;;;;6.56;61.91;98811.13;10469883;28;20563;-67
2022/02/06 11:56:37;;;;;;;1.20;0.68;;;;;;;6.63;61.12;98773.47;10469643;28;20698;-67
2022/02/06 12:01:43;;;;;;;0.82;0.63;;;;;;;6.63;61.31;98760.50;10469981;28;20045;-66
2022/02/06 12:06:48;;;;;;;1.10;0.70;;;;;;;6.64;60.85;98765.59;10470001;28;20058;-67
2022/02/06 12:11:59;;;;;;;2.42;0.70;;;;;;;6.63;60.63;98726.72;10494956;28;20400;-67
2022/02/06 12:22:36;;;;;;;1.35;0.63;;;;;;;6.45;61.91;98684.53;10499364;28;20123;-67
2022/02/06 12:27:38;;;;;;;1.17;0.47;;;;;;;6.43;61.82;98654.41;10502434;28;20075;-67
2022/02/06 12:32:41;;;;;;;1.08;0.70;;;;;;;6.35;62.29;98645.31;10489548;28;20489;-67
2022/02/06 12:37:53;;;;;;;0.47;0.47;;;;;;;6.24;63.56;98619.19;10504961;28;20434;-67
2022/02/06 12:43:02;;;;;;;0.60;0.50;;;;;;;6.30;62.81;98585.09;10510401;28;20136;-67
2022/02/06 12:48:09;;;;;;;1.05;0.70;;;;;;;6.41;62.44;98606.94;10481315;28;20040;-67
2022/02/06 12:53:17;;;;;;;0.60;0.50;;;;;;;6.44;62.32;98570.38;10468080;28;20063;-67
2022/02/06 12:58:27;;;;;;;1.55;1.10;;;;;;;6.45;61.98;98582.44;10468216;28;20497;-67
2022/02/06 13:03:37;;;;;;;0.55;0.55;;;;;;;6.43;61.80;98563.53;10509490;28;20051;-67
2022/02/06 13:08:41;;;;;;;2.33;0.60;;;;;;;6.43;62.00;98551.34;10484911;28;20062;-67
2022/02/06 13:19:35;;;;;;;0.40;0.40;;;;;;;6.60;61.53;98522.53;10467914;28;20052;-67
2022/02/06 13:30:16;;;;;;;0.77;0.50;;;;;;;6.72;61.53;98494.91;10480220;28;20065;-67
2022/02/06 13:40:46;;;;;;;0.40;0.40;;;;;;;7.02;60.58;98493.66;10475360;28;20063;-67
2022/02/06 13:45:54;;;;;;;0.77;0.70;;;;;;;6.86;60.65;98500.00;10475437;28;20079;-67
2022/02/06 13:51:00;;;;;;;0.93;0.80;;;;;;;6.93;60.70;98488.25;10474654;28;20054;-67
2022/02/06 13:56:06;;;;;;;0.60;0.60;;;;;;;6.91;60.97;98467.59;10474791;28;20047;-67
2022/02/06 14:01:09;;;;;;;2.30;0.90;;;;;;;6.85;61.49;98441.19;10487621;28;20052;-68
2022/02/06 14:06:14;;;;;;;2.72;1.35;;;;;;;6.91;62.06;98430.38;10504301;28;20059;-67
2022/02/06 14:11:35;;;;;;;3.95;1.85;;;;;;;6.92;62.75;98395.63;10474424;28;20037;-68
2022/02/06 14:16:45;;;;;;;3.65;1.65;;;;;;;6.88;63.67;98388.97;10474190;28;20052;-67
2022/02/06 14:21:47;;;;;;;4.78;2.00;;;;;;;6.76;63.96;98382.88;10473896;28;20049;-68
2022/02/06 14:27:03;;;;;;;3.15;1.60;;;;;;;6.68;65.08;98410.31;10472989;28;20053;-67
2022/02/06 14:32:14;;;;;;;4.07;2.08;;;;;;;6.64;65.22;98422.69;10473356;28;20754;-67
2022/02/06 14:37:17;;;;;;;4.35;1.80;;;;;;;6.75;65.28;98430.59;10471764;28;20055;-67
2022/02/06 14:42:22;;;;;;;3.95;1.70;;;;;;;6.67;66.04;98443.28;10472995;28;20575;-68
2022/02/06 14:47:23;;;;;;;4.32;1.95;;;;;;;6.73;66.26;98461.03;10482549;28;20478;-68
2022/02/06 14:52:25;;;;;;;2.72;1.00;;;;;;;6.61;68.09;98559.72;10499195;28;20054;-67
2022/02/06 14:57:26;;;;;;;4.47;1.30;;;;;;;6.50;67.85;98601.97;10472284;28;20044;-67
2022/02/06 15:02:28;;;;;;;3.88;1.60;;;;;;;6.39;67.89;98609.59;10471827;28;20044;-67
2022/02/06 15:07:31;;;;;;;2.95;1.20;;;;;;;6.01;68.11;98635.34;10471751;28;20204;-68
2022/02/06 15:12:34;;;;;;;3.22;1.13;;;;;;;6.02;67.48;98631.00;10472090;28;20352;-68
2022/02/06 15:17:35;;;;;;;2.20;1.45;;;;;;;5.90;67.39;98668.91;10470210;28;20070;-67
2022/02/06 15:22:38;;;;;;;0.45;0.45;;;;;;;5.57;67.09;98669.16;10496058;28;20511;-68
2022/02/06 15:27:39;;;;;;;1.85;1.05;;;;;;;5.29;67.26;98660.50;10470785;28;20052;-68
2022/02/06 15:32:41;;;;;;;3.85;1.00;;;;;;;5.33;66.72;98662.84;10470671;28;20337;-67
2022/02/06 15:37:43;;;;;;;2.60;1.27;;;;;;;5.13;67.29;98657.13;10480057;28;20142;-68
2022/02/06 15:42:45;;;;;;;2.38;1.40;;;;;;;5.01;66.96;98671.63;10512675;28;20067;-67
2022/02/06 15:47:47;;;;;;;2.80;1.35;;;;;;;4.98;67.40;98663.22;10493465;28;20139;-67
2022/02/06 15:52:48;;;;;;;1.70;1.00;;;;;;;4.94;67.05;98651.34;10470454;28;20045;-67
2022/02/06 15:57:50;;;;;;;2.78;1.20;;;;;;;4.92;67.18;98660.97;10469680;28;20158;-67
2022/02/06 16:02:52;;;;;;;1.05;0.70;;;;;;;4.82;67.48;98672.78;10469543;28;20058;-68
2022/02/06 16:07:53;;;;;;;1.13;0.85;;;;;;;4.85;67.32;98665.66;10468376;28;20059;-67
2022/02/06 16:12:56;;;;;;;1.55;0.70;;;;;;;4.77;67.35;98680.81;10469328;28;20052;-66
2022/02/06 16:18:02;;;;;;;0.95;0.77;;;;;;;4.89;67.44;98679.28;10468600;28;20579;-66
2022/02/06 16:23:04;;;;;;;1.23;0.80;;;;;;;4.80;67.59;98688.38;10468688;28;20044;-67
2022/02/06 16:28:06;;;;;;;4.40;2.70;;;;;;;5.01;67.45;98665.63;10466856;28;20045;-67
2022/02/06 16:33:08;;;;;;;4.38;2.03;;;;;;;4.99;67.49;98654.50;10468761;28;20496;-68
2022/02/06 16:38:09;;;;;;;2.28;1.50;;;;;;;4.86;67.85;98661.31;10467981;28;20070;-66
2022/02/06 16:43:11;;;;;;;2.58;1.23;;;;;;;4.75;67.84;98679.22;10467247;28;20182;-67
2022/02/06 16:48:13;;;;;;;1.23;0.85;;;;;;;4.62;68.19;98690.25;10468666;28;20050;-67
2022/02/06 16:53:15;;;;;;;2.95;1.25;;;;;;;4.71;68.22;98678.56;10468361;28;20052;-67
2022/02/06 16:58:17;;;;;;;5.05;2.70;;;;;;;4.83;67.92;98677.88;10467481;28;20089;-68
2022/02/06 17:03:21;;;;;;;2.08;1.27;;;;;;;4.70;68.48;98677.72;10467077;28;20171;-67
2022/02/06 17:08:22;;;;;;;1.48;1.00;;;;;;;4.66;68.40;98667.59;10467999;28;20052;-66
2022/02/06 17:13:24;;;;;;;4.53;2.75;;;;;;;4.59;68.85;98664.53;10467154;28;20393;-67
2022/02/06 17:18:26;;;;;;;3.75;2.15;;;;;;;4.56;68.86;98656.94;10466804;28;20475;-67
2022/02/06 17:23:28;;;;;;;4.80;2.90;;;;;;;4.53;68.53;98649.34;10463946;28;20072;-67
2022/02/06 17:28:30;;;;;;;3.75;2.28;;;;;;;4.59;68.56;98633.47;10466725;28;20063;-68
2022/02/06 17:33:35;;;;;;;7.45;4.00;;;;;;;4.40;68.92;98614.69;10485261;28;20384;-67
2022/02/06 17:38:37;;;;;;;5.22;2.80;;;;;;;4.57;68.22;98601.66;10487920;28;20051;-68
2022/02/06 17:43:38;;;;;;;7.72;4.72;;;;;;;4.52;68.12;98580.34;10466709;28;20055;-67
2022/02/06 17:48:42;;;;;;;11.77;5.18;;;;;;;4.58;67.95;98568.81;10467662;28;20050;-67
2022/02/06 17:53:44;;;;;;;5.20;2.00;;;;;;;4.75;67.87;98560.06;10467172;28;20052;-67
2022/02/06 17:58:46;;;;;;;12.05;5.97;;;;;;;4.82;67.51;98556.22;10466712;28;20060;-67
2022/02/06 18:03:47;;;;;;;15.15;8.00;;;;;;;4.83;67.76;98547.50;10468151;28;20603;-66
2022/02/06 18:08:49;;;;;;;9.05;4.10;;;;;;;4.76;67.73;98541.03;10468805;28;20052;-67
2022/02/06 18:13:56;;;;;;;20.38;10.13;;;;;;;4.75;67.92;98537.63;10473429;28;20048;-67
2022/02/06 18:18:58;;;;;;;11.57;5.75;;;;;;;4.81;67.81;98534.66;10473289;28;20049;-67
2022/02/06 18:24:00;;;;;;;4.18;1.70;;;;;;;4.80;67.89;98524.41;10473815;28;20079;-67
2022/02/06 18:29:22;;;;;;;2.97;1.35;;;;;;;4.99;67.49;98527.56;10473907;28;20426;-67
2022/02/06 18:34:24;;;;;;;3.38;1.33;;;;;;;4.92;67.52;98542.66;10473718;28;20060;-67
2022/02/06 18:39:26;;;;;;;4.80;1.40;;;;;;;4.91;67.58;98502.13;10471432;28;20154;-67
2022/02/06 18:44:29;;;;;;;3.45;1.30;;;;;;;5.00;67.90;98625.09;10472864;28;20074;-68
2022/02/06 18:49:31;;;;;;;5.68;1.40;;;;;;;5.04;67.61;98611.03;10473001;28;20056;-68
2022/02/06 18:54:34;;;;;;;8.10;1.48;;;;;;;4.96;67.77;98582.16;10471392;28;20056;-67
2022/02/06 18:59:39;;;;;;;3.08;1.30;;;;;;;4.83;67.51;98571.66;10472790;28;20427;-67
2022/02/06 19:04:41;;;;;;;4.40;1.60;;;;;;;4.79;67.04;98541.69;10470701;28;20048;-67
2022/02/06 19:09:43;;;;;;;12.77;7.88;;;;;;;4.79;67.04;98533.06;10470989;28;20048;-68
2022/02/06 19:14:45;;;;;;;3.08;1.33;;;;;;;4.48;67.66;98488.25;10472192;28;20411;-67
2022/02/06 19:19:47;;;;;;;3.65;1.50;;;;;;;4.49;67.96;98515.84;10471049;28;20412;-67
2022/02/06 19:24:49;;;;;;;3.60;1.35;;;;;;;4.57;66.99;98518.81;10491552;28;20047;-67
2022/02/06 19:29:50;;;;;;;2.80;1.30;;;;;;;4.81;66.75;98539.00;10512922;28;20052;-67
2022/02/06 19:34:58;;;;;;;2.78;1.15;;;;;;;4.70;67.12;98530.09;10473106;28;20053;-67
2022/02/06 19:40:01;;;;;;;5.68;1.88;;;;;;;4.69;67.32;98515.50;10492856;28;20048;-67
2022/02/06 19:45:04;;;;;;;2.65;1.40;;;;;;;4.82;66.75;98531.13;10505731;28;20052;-67
2022/02/06 19:50:08;;;;;;;3.58;1.38;;;;;;;4.75;67.21;98524.66;10512418;28;20048;-67
2022/02/06 19:55:10;;;;;;;2.97;1.20;;;;;;;4.71;67.36;98528.34;10467612;28;20047;-67
2022/02/06 20:00:12;;;;;;;2.15;1.10;;;;;;;4.68;67.53;98531.94;10489828;28;20048;-67
2022/02/06 20:05:15;;;;;;;2.67;1.00;;;;;;;4.48;67.71;98527.09;10463955;28;20057;-67
2022/02/06 20:10:17;;;;;;;4.55;1.13;;;;;;;4.58;67.41;98546.34;10468196;28;20143;-67
2022/02/06 20:15:18;;;;;;;1.83;1.10;;;;;;;4.63;67.56;98561.63;10472097;28;20052;-68
2022/02/06 20:20:21;;;;;;;2.33;1.02;;;;;;;4.35;67.67;98579.66;10468272;28;20088;-68
2022/02/06 20:25:25;;;;;;;1.50;0.70;;;;;;;4.27;67.73;98625.81;10469588;28;20050;-67
2022/02/06 20:30:27;;;;;;;0.75;0.60;;;;;;;4.07;68.06;98647.59;10477710;28;20061;-68
2022/02/06 20:35:31;;;;;;;1.45;0.68;;;;;;;3.69;68.44;98652.19;10467618;28;20067;-67
2022/02/06 20:40:33;;;;;;;0.50;0.50;;;;;;;3.65;67.50;98630.00;10470843;28;20213;-67
2022/02/06 20:45:35;;;;;;;0.68;0.63;;;;;;;3.41;68.07;98643.34;10468010;28;20096;-67
2022/02/06 20:50:37;;;;;;;2.17;1.10;;;;;;;3.50;67.55;98632.50;10475294;28;20058;-66
2022/02/06 20:55:38;;;;;;;2.72;1.20;;;;;;;3.46;67.40;98644.78;10477414;28;20056;-66
2022/02/06 21:00:40;;;;;;;3.33;1.40;;;;;;;3.40;67.47;98637.34;10467418;28;20066;-67
2022/02/06 21:05:44;;;;;;;1.23;0.70;;;;;;;3.32;67.77;98613.63;10466692;28;20049;-67
2022/02/06 21:10:46;;;;;;;0.73;0.73;;;;;;;3.30;67.62;98599.97;10468497;28;20047;-68
2022/02/06 21:15:48;;;;;;;1.23;0.88;;;;;;;3.32;67.79;98605.88;10480123;28;20135;-68
2022/02/06 21:20:51;;;;;;;1.35;0.70;;;;;;;3.03;68.64;98622.84;10464563;28;20052;-68
2022/02/06 21:25:53;;;;;;;1.08;0.65;;;;;;;2.98;68.98;98648.09;10464980;28;20059;-67
2022/02/06 21:30:56;;;;;;;1.35;0.80;;;;;;;2.87;68.90;98637.44;10465372;28;20052;-67
2022/02/06 21:35:58;;;;;;;0.50;0.50;;;;;;;2.88;69.25;98627.97;10465136;28;20075;-68
2022/02/06 21:41:00;;;;;;;0.65;0.65;;;;;;;2.85;69.28;98653.91;10471144;28;20045;-68
2022/02/06 21:46:02;;;;;;;1.05;0.80;;;;;;;2.80;69.91;98645.56;10471914;28;20389;-68
2022/02/06 21:51:05;;;;;;;1.95;1.00;;;;;;;2.79;70.06;98624.06;10475065;28;20082;-68
2022/02/06 21:56:07;;;;;;;2.10;1.00;;;;;;;2.84;69.75;98655.69;10474497;28;20052;-68
2022/02/06 22:01:09;;;;;;;0.95;0.85;;;;;;;3.03;69.39;98661.59;10473685;28;20063;-68
2022/02/06 22:06:17;;;;;;;4.13;1.00;;;;;;;2.94;69.74;98644.00;10494401;28;20053;-68
2022/02/06 22:32:15;;;;;;;1.73;1.10;;;;;;;3.15;69.32;98692.91;10471071;28;20056;-68
2022/02/06 22:37:17;;;;;;;2.97;1.23;;;;;;;3.19;69.11;98699.59;10470711;28;20425;-67
2022/02/06 22:42:19;;;;;;;3.00;1.30;;;;;;;3.33;68.75;98679.06;10504103;28;20560;-67
2022/02/06 22:47:21;;;;;;;7.35;1.50;;;;;;;3.41;68.49;98721.72;10469847;28;20049;-67
2022/02/06 22:52:24;;;;;;;4.30;1.50;;;;;;;3.53;68.37;98715.94;10471818;28;20074;-68
2022/02/06 22:57:26;;;;;;;3.28;1.50;;;;;;;3.56;68.08;98735.59;10468893;28;20207;-66
2022/02/06 23:02:28;;;;;;;4.68;1.92;;;;;;;3.71;67.87;98740.00;10480794;28;20094;-67
2022/02/06 23:07:32;;;;;;;4.82;1.38;;;;;;;3.77;67.73;98737.09;10469753;28;20048;-67
2022/02/06 23:12:34;;;;;;;2.35;1.40;;;;;;;3.77;67.32;98744.88;10468723;28;20049;-67
2022/02/06 23:17:36;;;;;;;4.57;1.33;;;;;;;3.73;67.26;98748.53;10468710;28;20044;-67
2022/02/06 23:22:38;;;;;;;4.65;1.63;;;;;;;3.78;66.01;98749.94;10484203;28;20044;-67
2022/02/06 23:27:40;;;;;;;4.70;1.65;;;;;;;3.86;65.92;98747.03;10469555;28;20056;-67
2022/02/06 23:32:48;;;;;;;5.65;1.58;;;;;;;3.89;65.55;98754.59;10469405;28;20057;-67
2022/02/06 23:37:51;;;;;;;7.70;1.77;;;;;;;3.94;65.01;98783.69;10470688;28;20118;-67
2022/02/06 23:42:53;;;;;;;3.00;1.20;;;;;;;3.69;64.26;98767.69;10470418;28;20059;-67
2022/02/06 23:47:58;;;;;;;6.22;1.40;;;;;;;3.81;64.36;98804.13;10467352;28;20056;-67
